Terminal Aerodrome Forecast
Issued by NWS Omaha/Valley, NE

Home | Current Version | Previous Version | Text Only | Print | Product List | Glossary On
Versions: 1 2 3 4 5 6 7 8 9 10 11 12 13 14 15 16 17 18 19 20 21 22 23 24 25 26 27 28 29 30 31 32 33 34
267
FTUS43 KOAX 132323
TAFOMA
TAF
KOMA 132323Z 1400/1424 14013KT P6SM OVC035
     FM140600 14014G22KT P6SM OVC035 PROB30 1409/1413 15009KT 5SM
      -SN BKN025
     FM141300 15008KT P6SM OVC035
      TEMPO 1413/1415 BKN025
     FM141500 32008KT P6SM BKN035=

USA.gov is the U.S. government's official web portal to all federal, state and local government web resources and services.